sensor_id;sensor_type;location;lat;lon;timestamp;P1;durP1;ratioP1;P2;durP2;ratioP2
28028;SDS011;15345;59.364;18.016;2023-05-17T00:00:34;7.13;;;6.72;;
28028;SDS011;15345;59.364;18.016;2023-05-17T00:01:53;7.32;;;6.72;;
28028;SDS011;15345;59.364;18.016;2023-05-17T00:03:14;6.88;;;6.25;;
28028;SDS011;15345;59.364;18.016;2023-05-17T00:04:33;7.13;;;6.47;;
28028;SDS011;15345;59.364;18.016;2023-05-17T00:05:52;7.32;;;6.72;;
28028;SDS011;15345;59.364;18.016;2023-05-17T00:07:11;7.43;;;6.82;;
28028;SDS011;15345;59.364;18.016;2023-05-17T00:08:29;7.25;;;6.70;;
28028;SDS011;15345;59.364;18.016;2023-05-17T00:09:49;8.23;;;6.65;;
28028;SDS011;15345;59.364;18.016;2023-05-17T00:11:08;7.55;;;6.82;;
28028;SDS011;15345;59.364;18.016;2023-05-17T00:12:27;8.43;;;7.82;;
28028;SDS011;15345;59.364;18.016;2023-05-17T00:13:46;7.25;;;6.72;;
28028;SDS011;15345;59.364;18.016;2023-05-17T00:15:05;7.40;;;6.90;;
28028;SDS011;15345;59.364;18.016;2023-05-17T00:16:24;7.63;;;6.85;;
28028;SDS011;15345;59.364;18.016;2023-05-17T00:17:43;7.43;;;6.82;;
28028;SDS011;15345;59.364;18.016;2023-05-17T00:19:02;7.60;;;7.10;;
28028;SDS011;15345;59.364;18.016;2023-05-17T00:20:20;7.75;;;7.05;;
28028;SDS011;15345;59.364;18.016;2023-05-17T00:21:39;7.88;;;7.38;;
28028;SDS011;15345;59.364;18.016;2023-05-17T00:22:58;8.48;;;7.60;;
28028;SDS011;15345;59.364;18.016;2023-05-17T00:24:18;7.05;;;6.65;;
28028;SDS011;15345;59.364;18.016;2023-05-17T00:25:37;7.60;;;7.10;;
28028;SDS011;15345;59.364;18.016;2023-05-17T00:26:56;8.07;;;7.47;;
28028;SDS011;15345;59.364;18.016;2023-05-17T00:28:15;8.02;;;7.40;;
28028;SDS011;15345;59.364;18.016;2023-05-17T00:29:34;8.40;;;7.55;;
28028;SDS011;15345;59.364;18.016;2023-05-17T00:30:53;7.47;;;6.97;;
28028;SDS011;15345;59.364;18.016;2023-05-17T00:32:11;8.05;;;7.35;;
28028;SDS011;15345;59.364;18.016;2023-05-17T00:33:30;8.40;;;7.63;;
28028;SDS011;15345;59.364;18.016;2023-05-17T00:34:49;7.80;;;7.13;;
28028;SDS011;15345;59.364;18.016;2023-05-17T00:36:08;8.30;;;7.65;;
28028;SDS011;15345;59.364;18.016;2023-05-17T00:37:27;8.25;;;7.55;;
28028;SDS011;15345;59.364;18.016;2023-05-17T00:38:46;8.35;;;7.75;;
28028;SDS011;15345;59.364;18.016;2023-05-17T00:40:05;8.70;;;7.90;;
28028;SDS011;15345;59.364;18.016;2023-05-17T00:41:25;7.97;;;7.35;;
28028;SDS011;15345;59.364;18.016;2023-05-17T00:42:44;7.97;;;7.47;;
28028;SDS011;15345;59.364;18.016;2023-05-17T00:44:03;8.63;;;8.02;;
28028;SDS011;15345;59.364;18.016;2023-05-17T00:45:21;8.10;;;7.50;;
28028;SDS011;15345;59.364;18.016;2023-05-17T00:46:40;8.15;;;7.38;;
28028;SDS011;15345;59.364;18.016;2023-05-17T00:47:59;8.52;;;7.82;;
28028;SDS011;15345;59.364;18.016;2023-05-17T00:49:18;7.88;;;7.32;;
28028;SDS011;15345;59.364;18.016;2023-05-17T00:50:37;13.68;;;7.60;;
28028;SDS011;15345;59.364;18.016;2023-05-17T00:51:57;8.57;;;7.85;;
28028;SDS011;15345;59.364;18.016;2023-05-17T00:53:16;8.23;;;7.53;;
28028;SDS011;15345;59.364;18.016;2023-05-17T00:54:36;7.72;;;7.22;;
28028;SDS011;15345;59.364;18.016;2023-05-17T00:55:55;9.25;;;7.50;;
28028;SDS011;15345;59.364;18.016;2023-05-17T00:57:14;7.90;;;7.30;;
28028;SDS011;15345;59.364;18.016;2023-05-17T00:58:34;8.38;;;7.70;;
28028;SDS011;15345;59.364;18.016;2023-05-17T00:59:54;7.60;;;7.10;;
28028;SDS011;15345;59.364;18.016;2023-05-17T01:01:13;7.78;;;7.07;;
28028;SDS011;15345;59.364;18.016;2023-05-17T01:02:32;7.97;;;7.47;;
28028;SDS011;15345;59.364;18.016;2023-05-17T01:03:51;8.07;;;7.28;;
28028;SDS011;15345;59.364;18.016;2023-05-17T01:05:10;7.80;;;7.20;;
28028;SDS011;15345;59.364;18.016;2023-05-17T01:06:29;7.68;;;7.03;;
28028;SDS011;15345;59.364;18.016;2023-05-17T01:07:48;7.72;;;7.13;;
28028;SDS011;15345;59.364;18.016;2023-05-17T01:09:07;8.82;;;7.93;;
28028;SDS011;15345;59.364;18.016;2023-05-17T01:10:30;8.35;;;7.75;;
28028;SDS011;15345;59.364;18.016;2023-05-17T01:12:04;8.13;;;7.43;;
28028;SDS011;15345;59.364;18.016;2023-05-17T01:16:29;8.23;;;7.55;;
28028;SDS011;15345;59.364;18.016;2023-05-17T01:17:53;8.18;;;7.38;;
28028;SDS011;15345;59.364;18.016;2023-05-17T01:20:54;7.90;;;7.30;;
28028;SDS011;15345;59.364;18.016;2023-05-17T01:23:54;8.27;;;7.68;;
28028;SDS011;15345;59.364;18.016;2023-05-17T01:26:40;8.75;;;7.90;;
28028;SDS011;15345;59.364;18.016;2023-05-17T01:28:02;8.35;;;7.78;;
28028;SDS011;15345;59.364;18.016;2023-05-17T01:29:23;8.90;;;7.90;;
28028;SDS011;15345;59.364;18.016;2023-05-17T01:30:44;8.35;;;7.75;;
28028;SDS011;15345;59.364;18.016;2023-05-17T01:32:05;8.07;;;7.57;;
28028;SDS011;15345;59.364;18.016;2023-05-17T01:33:23;8.73;;;7.97;;
28028;SDS011;15345;59.364;18.016;2023-05-17T01:34:42;8.30;;;7.53;;
28028;SDS011;15345;59.364;18.016;2023-05-17T01:36:01;8.05;;;7.43;;
28028;SDS011;15345;59.364;18.016;2023-05-17T01:37:20;8.80;;;7.95;;
28028;SDS011;15345;59.364;18.016;2023-05-17T01:38:39;8.38;;;7.68;;
28028;SDS011;15345;59.364;18.016;2023-05-17T01:39:58;8.93;;;8.02;;
28028;SDS011;15345;59.364;18.016;2023-05-17T01:41:26;8.50;;;7.97;;
28028;SDS011;15345;59.364;18.016;2023-05-17T01:42:52;8.43;;;7.72;;
28028;SDS011;15345;59.364;18.016;2023-05-17T01:44:17;8.35;;;7.57;;
28028;SDS011;15345;59.364;18.016;2023-05-17T01:45:41;7.18;;;6.68;;
28028;SDS011;15345;59.364;18.016;2023-05-17T01:47:04;7.72;;;7.22;;
28028;SDS011;15345;59.364;18.016;2023-05-17T01:48:35;8.68;;;7.97;;
28028;SDS011;15345;59.364;18.016;2023-05-17T01:49:54;8.82;;;8.20;;
28028;SDS011;15345;59.364;18.016;2023-05-17T01:51:16;8.27;;;7.63;;
28028;SDS011;15345;59.364;18.016;2023-05-17T01:52:37;8.70;;;8.10;;
28028;SDS011;15345;59.364;18.016;2023-05-17T01:54:04;7.97;;;7.38;;
28028;SDS011;15345;59.364;18.016;2023-05-17T01:56:50;7.70;;;7.18;;
28028;SDS011;15345;59.364;18.016;2023-05-17T01:58:12;8.80;;;8.10;;
28028;SDS011;15345;59.364;18.016;2023-05-17T01:59:31;8.38;;;7.55;;
28028;SDS011;15345;59.364;18.016;2023-05-17T02:00:51;8.70;;;8.10;;
28028;SDS011;15345;59.364;18.016;2023-05-17T02:02:13;8.65;;;7.95;;
28028;SDS011;15345;59.364;18.016;2023-05-17T02:03:32;9.20;;;7.88;;
28028;SDS011;15345;59.364;18.016;2023-05-17T02:04:51;8.57;;;7.90;;
28028;SDS011;15345;59.364;18.016;2023-05-17T02:06:09;8.65;;;7.88;;
28028;SDS011;15345;59.364;18.016;2023-05-17T02:07:29;8.85;;;8.25;;
28028;SDS011;15345;59.364;18.016;2023-05-17T02:08:48;10.80;;;8.18;;
28028;SDS011;15345;59.364;18.016;2023-05-17T02:10:07;8.80;;;8.00;;
28028;SDS011;15345;59.364;18.016;2023-05-17T02:11:26;8.48;;;7.85;;
28028;SDS011;15345;59.364;18.016;2023-05-17T02:12:45;8.32;;;7.72;;
28028;SDS011;15345;59.364;18.016;2023-05-17T02:14:04;7.80;;;7.30;;
28028;SDS011;15345;59.364;18.016;2023-05-17T02:15:23;7.45;;;6.75;;
28028;SDS011;15345;59.364;18.016;2023-05-17T02:16:41;7.95;;;7.35;;
28028;SDS011;15345;59.364;18.016;2023-05-17T02:18:01;7.85;;;7.32;;
28028;SDS011;15345;59.364;18.016;2023-05-17T02:19:20;10.05;;;8.32;;
28028;SDS011;15345;59.364;18.016;2023-05-17T02:20:39;8.00;;;7.43;;
28028;SDS011;15345;59.364;18.016;2023-05-17T02:21:58;7.90;;;7.40;;
28028;SDS011;15345;59.364;18.016;2023-05-17T02:23:17;7.53;;;7.03;;
28028;SDS011;15345;59.364;18.016;2023-05-17T02:24:36;7.88;;;7.38;;
28028;SDS011;15345;59.364;18.016;2023-05-17T02:25:55;8.35;;;7.60;;
28028;SDS011;15345;59.364;18.016;2023-05-17T02:27:14;7.85;;;7.15;;
28028;SDS011;15345;59.364;18.016;2023-05-17T02:28:33;7.55;;;7.05;;
28028;SDS011;15345;59.364;18.016;2023-05-17T02:29:52;6.95;;;6.35;;
28028;SDS011;15345;59.364;18.016;2023-05-17T02:31:11;7.65;;;7.15;;
28028;SDS011;15345;59.364;18.016;2023-05-17T02:32:30;6.88;;;6.30;;
28028;SDS011;15345;59.364;18.016;2023-05-17T02:33:49;7.72;;;7.05;;
28028;SDS011;15345;59.364;18.016;2023-05-17T02:35:08;7.53;;;6.82;;
28028;SDS011;15345;59.364;18.016;2023-05-17T02:36:27;7.35;;;6.75;;
28028;SDS011;15345;59.364;18.016;2023-05-17T02:37:46;7.22;;;6.65;;
28028;SDS011;15345;59.364;18.016;2023-05-17T02:39:05;7.93;;;7.32;;
28028;SDS011;15345;59.364;18.016;2023-05-17T02:40:24;7.18;;;6.70;;
28028;SDS011;15345;59.364;18.016;2023-05-17T02:41:43;7.63;;;7.13;;
28028;SDS011;15345;59.364;18.016;2023-05-17T02:43:02;7.75;;;7.30;;
28028;SDS011;15345;59.364;18.016;2023-05-17T02:44:21;7.88;;;7.38;;
28028;SDS011;15345;59.364;18.016;2023-05-17T02:45:42;7.72;;;7.22;;
28028;SDS011;15345;59.364;18.016;2023-05-17T02:47:00;7.05;;;6.65;;
28028;SDS011;15345;59.364;18.016;2023-05-17T02:48:19;7.00;;;6.60;;
28028;SDS011;15345;59.364;18.016;2023-05-17T02:49:38;7.55;;;6.90;;
28028;SDS011;15345;59.364;18.016;2023-05-17T02:50:57;7.47;;;6.88;;
28028;SDS011;15345;59.364;18.016;2023-05-17T02:52:16;7.40;;;7.00;;
28028;SDS011;15345;59.364;18.016;2023-05-17T02:53:35;7.55;;;6.85;;
28028;SDS011;15345;59.364;18.016;2023-05-17T02:54:54;10.30;;;7.03;;
28028;SDS011;15345;59.364;18.016;2023-05-17T02:56:13;7.32;;;6.82;;
28028;SDS011;15345;59.364;18.016;2023-05-17T02:57:32;7.60;;;7.10;;
28028;SDS011;15345;59.364;18.016;2023-05-17T02:58:51;7.40;;;6.80;;
28028;SDS011;15345;59.364;18.016;2023-05-17T03:00:10;6.82;;;6.43;;
28028;SDS011;15345;59.364;18.016;2023-05-17T03:01:29;7.35;;;6.45;;
28028;SDS011;15345;59.364;18.016;2023-05-17T03:02:48;7.50;;;7.00;;
28028;SDS011;15345;59.364;18.016;2023-05-17T03:04:07;6.93;;;6.53;;
28028;SDS011;15345;59.364;18.016;2023-05-17T03:05:26;7.68;;;7.03;;
28028;SDS011;15345;59.364;18.016;2023-05-17T03:06:45;6.82;;;6.43;;
28028;SDS011;15345;59.364;18.016;2023-05-17T03:08:04;6.93;;;6.53;;
28028;SDS011;15345;59.364;18.016;2023-05-17T03:09:23;6.50;;;6.20;;
28028;SDS011;15345;59.364;18.016;2023-05-17T03:10:42;6.63;;;6.13;;
28028;SDS011;15345;59.364;18.016;2023-05-17T03:12:00;6.72;;;6.32;;
28028;SDS011;15345;59.364;18.016;2023-05-17T03:13:19;6.75;;;6.35;;
28028;SDS011;15345;59.364;18.016;2023-05-17T03:14:38;7.30;;;6.88;;
28028;SDS011;15345;59.364;18.016;2023-05-17T03:15:57;6.85;;;6.45;;
28028;SDS011;15345;59.364;18.016;2023-05-17T03:17:17;6.75;;;6.35;;
28028;SDS011;15345;59.364;18.016;2023-05-17T03:18:35;7.03;;;6.50;;
28028;SDS011;15345;59.364;18.016;2023-05-17T03:19:54;11.40;;;6.93;;
28028;SDS011;15345;59.364;18.016;2023-05-17T03:21:14;7.68;;;6.97;;
28028;SDS011;15345;59.364;18.016;2023-05-17T03:22:33;7.85;;;6.53;;
28028;SDS011;15345;59.364;18.016;2023-05-17T03:23:52;7.03;;;6.57;;
28028;SDS011;15345;59.364;18.016;2023-05-17T03:25:11;7.47;;;6.95;;
28028;SDS011;15345;59.364;18.016;2023-05-17T03:26:30;7.45;;;7.05;;
28028;SDS011;15345;59.364;18.016;2023-05-17T03:27:51;7.53;;;7.00;;
28028;SDS011;15345;59.364;18.016;2023-05-17T03:29:09;6.80;;;6.15;;
28028;SDS011;15345;59.364;18.016;2023-05-17T03:30:29;6.80;;;6.30;;
28028;SDS011;15345;59.364;18.016;2023-05-17T03:31:48;7.60;;;6.18;;
28028;SDS011;15345;59.364;18.016;2023-05-17T03:33:07;6.47;;;6.00;;
28028;SDS011;15345;59.364;18.016;2023-05-17T03:34:26;6.85;;;6.45;;
28028;SDS011;15345;59.364;18.016;2023-05-17T03:35:45;6.65;;;6.15;;
28028;SDS011;15345;59.364;18.016;2023-05-17T03:37:04;6.30;;;5.90;;
28028;SDS011;15345;59.364;18.016;2023-05-17T03:38:23;6.40;;;6.00;;
28028;SDS011;15345;59.364;18.016;2023-05-17T03:39:42;6.57;;;6.22;;
28028;SDS011;15345;59.364;18.016;2023-05-17T03:41:01;6.05;;;5.65;;
28028;SDS011;15345;59.364;18.016;2023-05-17T03:42:21;6.55;;;5.50;;
28028;SDS011;15345;59.364;18.016;2023-05-17T03:43:40;5.88;;;5.57;;
28028;SDS011;15345;59.364;18.016;2023-05-17T03:44:59;6.40;;;5.85;;
28028;SDS011;15345;59.364;18.016;2023-05-17T03:46:18;6.10;;;5.70;;
28028;SDS011;15345;59.364;18.016;2023-05-17T03:47:37;6.68;;;6.07;;
28028;SDS011;15345;59.364;18.016;2023-05-17T03:48:56;6.68;;;6.28;;
28028;SDS011;15345;59.364;18.016;2023-05-17T03:50:15;6.30;;;5.90;;
28028;SDS011;15345;59.364;18.016;2023-05-17T03:51:34;6.55;;;6.15;;
28028;SDS011;15345;59.364;18.016;2023-05-17T03:52:53;7.00;;;6.50;;
28028;SDS011;15345;59.364;18.016;2023-05-17T03:54:12;7.35;;;6.05;;
28028;SDS011;15345;59.364;18.016;2023-05-17T03:55:31;7.05;;;6.25;;
28028;SDS011;15345;59.364;18.016;2023-05-17T03:56:49;6.40;;;5.85;;
28028;SDS011;15345;59.364;18.016;2023-05-17T03:58:08;5.70;;;5.30;;
28028;SDS011;15345;59.364;18.016;2023-05-17T03:59:27;6.32;;;5.82;;
28028;SDS011;15345;59.364;18.016;2023-05-17T04:00:46;5.65;;;5.32;;
28028;SDS011;15345;59.364;18.016;2023-05-17T04:02:05;6.13;;;5.72;;
28028;SDS011;15345;59.364;18.016;2023-05-17T04:03:24;6.85;;;5.95;;
28028;SDS011;15345;59.364;18.016;2023-05-17T04:04:49;6.07;;;5.68;;
28028;SDS011;15345;59.364;18.016;2023-05-17T04:06:09;6.28;;;5.88;;
28028;SDS011;15345;59.364;18.016;2023-05-17T04:07:28;5.78;;;5.38;;
28028;SDS011;15345;59.364;18.016;2023-05-17T04:08:47;6.30;;;5.97;;
28028;SDS011;15345;59.364;18.016;2023-05-17T04:10:06;6.15;;;5.70;;
28028;SDS011;15345;59.364;18.016;2023-05-17T04:11:25;5.88;;;5.57;;
28028;SDS011;15345;59.364;18.016;2023-05-17T04:12:45;6.82;;;5.30;;
28028;SDS011;15345;59.364;18.016;2023-05-17T04:14:04;6.30;;;5.90;;
28028;SDS011;15345;59.364;18.016;2023-05-17T04:15:22;5.78;;;5.28;;
28028;SDS011;15345;59.364;18.016;2023-05-17T04:16:41;6.15;;;5.72;;
28028;SDS011;15345;59.364;18.016;2023-05-17T04:18:00;5.97;;;5.68;;
28028;SDS011;15345;59.364;18.016;2023-05-17T04:19:19;6.20;;;5.70;;
28028;SDS011;15345;59.364;18.016;2023-05-17T04:20:38;7.65;;;5.50;;
28028;SDS011;15345;59.364;18.016;2023-05-17T04:21:57;6.15;;;5.63;;
28028;SDS011;15345;59.364;18.016;2023-05-17T04:23:16;6.03;;;5.72;;
28028;SDS011;15345;59.364;18.016;2023-05-17T04:24:35;5.65;;;5.35;;
28028;SDS011;15345;59.364;18.016;2023-05-17T04:25:54;6.07;;;5.57;;
28028;SDS011;15345;59.364;18.016;2023-05-17T04:27:15;5.93;;;5.60;;
28028;SDS011;15345;59.364;18.016;2023-05-17T04:28:34;5.93;;;5.40;;
28028;SDS011;15345;59.364;18.016;2023-05-17T04:29:53;5.85;;;5.45;;
28028;SDS011;15345;59.364;18.016;2023-05-17T04:31:13;5.90;;;5.50;;
28028;SDS011;15345;59.364;18.016;2023-05-17T04:32:33;7.57;;;5.88;;
28028;SDS011;15345;59.364;18.016;2023-05-17T04:33:52;6.10;;;5.70;;
28028;SDS011;15345;59.364;18.016;2023-05-17T04:35:11;5.63;;;5.13;;
28028;SDS011;15345;59.364;18.016;2023-05-17T04:36:30;5.90;;;5.50;;
28028;SDS011;15345;59.364;18.016;2023-05-17T04:37:49;6.25;;;5.82;;
28028;SDS011;15345;59.364;18.016;2023-05-17T04:39:08;6.15;;;5.57;;
28028;SDS011;15345;59.364;18.016;2023-05-17T04:40:27;5.95;;;5.25;;
28028;SDS011;15345;59.364;18.016;2023-05-17T04:41:46;5.38;;;5.07;;
28028;SDS011;15345;59.364;18.016;2023-05-17T04:43:05;5.32;;;5.03;;
28028;SDS011;15345;59.364;18.016;2023-05-17T04:44:25;5.32;;;4.93;;
28028;SDS011;15345;59.364;18.016;2023-05-17T04:45:44;5.38;;;4.97;;
28028;SDS011;15345;59.364;18.016;2023-05-17T04:47:03;5.15;;;4.80;;
28028;SDS011;15345;59.364;18.016;2023-05-17T04:48:22;5.63;;;5.22;;
28028;SDS011;15345;59.364;18.016;2023-05-17T04:49:41;5.45;;;5.13;;
28028;SDS011;15345;59.364;18.016;2023-05-17T04:51:01;6.30;;;5.18;;
28028;SDS011;15345;59.364;18.016;2023-05-17T04:52:21;5.00;;;4.70;;
28028;SDS011;15345;59.364;18.016;2023-05-17T04:53:40;5.30;;;5.00;;
28028;SDS011;15345;59.364;18.016;2023-05-17T04:54:59;5.43;;;4.88;;
28028;SDS011;15345;59.364;18.016;2023-05-17T04:56:18;5.32;;;5.00;;
28028;SDS011;15345;59.364;18.016;2023-05-17T04:57:37;5.53;;;4.90;;
28028;SDS011;15345;59.364;18.016;2023-05-17T04:58:56;5.72;;;5.32;;
28028;SDS011;15345;59.364;18.016;2023-05-17T05:00:15;5.53;;;5.13;;
28028;SDS011;15345;59.364;18.016;2023-05-17T05:01:34;6.20;;;5.70;;
28028;SDS011;15345;59.364;18.016;2023-05-17T05:02:53;6.80;;;6.40;;
28028;SDS011;15345;59.364;18.016;2023-05-17T05:04:12;6.80;;;6.20;;
28028;SDS011;15345;59.364;18.016;2023-05-17T05:05:31;6.70;;;6.30;;
28028;SDS011;15345;59.364;18.016;2023-05-17T05:06:51;7.07;;;6.47;;
28028;SDS011;15345;59.364;18.016;2023-05-17T05:08:10;6.43;;;6.03;;
28028;SDS011;15345;59.364;18.016;2023-05-17T05:09:29;6.93;;;6.43;;
28028;SDS011;15345;59.364;18.016;2023-05-17T05:10:48;7.13;;;6.63;;
28028;SDS011;15345;59.364;18.016;2023-05-17T05:12:07;6.07;;;5.68;;
28028;SDS011;15345;59.364;18.016;2023-05-17T05:13:26;6.80;;;6.40;;
28028;SDS011;15345;59.364;18.016;2023-05-17T05:14:48;7.78;;;7.28;;
28028;SDS011;15345;59.364;18.016;2023-05-17T05:16:07;6.78;;;6.28;;
28028;SDS011;15345;59.364;18.016;2023-05-17T05:17:28;6.28;;;5.88;;
28028;SDS011;15345;59.364;18.016;2023-05-17T05:18:47;6.70;;;6.30;;
28028;SDS011;15345;59.364;18.016;2023-05-17T05:20:06;6.10;;;5.60;;
28028;SDS011;15345;59.364;18.016;2023-05-17T05:21:26;6.75;;;6.20;;
28028;SDS011;15345;59.364;18.016;2023-05-17T05:22:45;6.65;;;6.18;;
28028;SDS011;15345;59.364;18.016;2023-05-17T05:24:04;7.03;;;6.50;;
28028;SDS011;15345;59.364;18.016;2023-05-17T05:25:23;6.90;;;6.25;;
28028;SDS011;15345;59.364;18.016;2023-05-17T05:26:41;7.47;;;6.88;;
28028;SDS011;15345;59.364;18.016;2023-05-17T05:28:00;6.60;;;6.20;;
28028;SDS011;15345;59.364;18.016;2023-05-17T05:29:19;7.10;;;6.40;;
28028;SDS011;15345;59.364;18.016;2023-05-17T05:30:39;6.60;;;6.10;;
28028;SDS011;15345;59.364;18.016;2023-05-17T05:31:58;7.40;;;6.82;;
28028;SDS011;15345;59.364;18.016;2023-05-17T05:33:17;6.85;;;6.35;;
28028;SDS011;15345;59.364;18.016;2023-05-17T05:34:36;6.45;;;6.03;;
28028;SDS011;15345;59.364;18.016;2023-05-17T05:35:55;6.93;;;6.43;;
28028;SDS011;15345;59.364;18.016;2023-05-17T05:37:14;7.07;;;6.38;;
28028;SDS011;15345;59.364;18.016;2023-05-17T05:38:34;6.60;;;6.13;;
28028;SDS011;15345;59.364;18.016;2023-05-17T05:39:53;6.03;;;5.55;;
28028;SDS011;15345;59.364;18.016;2023-05-17T05:41:12;6.88;;;6.20;;
28028;SDS011;15345;59.364;18.016;2023-05-17T05:42:31;7.97;;;6.10;;
28028;SDS011;15345;59.364;18.016;2023-05-17T05:43:50;7.05;;;6.25;;
28028;SDS011;15345;59.364;18.016;2023-05-17T05:45:09;6.10;;;5.45;;
28028;SDS011;15345;59.364;18.016;2023-05-17T05:46:28;6.72;;;5.65;;
28028;SDS011;15345;59.364;18.016;2023-05-17T05:47:47;6.28;;;5.88;;
28028;SDS011;15345;59.364;18.016;2023-05-17T05:49:06;8.50;;;5.90;;
28028;SDS011;15345;59.364;18.016;2023-05-17T05:50:25;6.47;;;5.88;;
28028;SDS011;15345;59.364;18.016;2023-05-17T05:51:44;7.20;;;6.20;;
28028;SDS011;15345;59.364;18.016;2023-05-17T05:53:03;5.68;;;5.25;;
28028;SDS011;15345;59.364;18.016;2023-05-17T05:54:22;5.22;;;4.72;;
28028;SDS011;15345;59.364;18.016;2023-05-17T05:55:41;5.90;;;5.50;;
28028;SDS011;15345;59.364;18.016;2023-05-17T05:57:00;5.53;;;5.07;;
28028;SDS011;15345;59.364;18.016;2023-05-17T05:58:20;5.30;;;4.75;;
28028;SDS011;15345;59.364;18.016;2023-05-17T05:59:39;6.97;;;5.43;;
28028;SDS011;15345;59.364;18.016;2023-05-17T06:00:58;6.45;;;5.85;;
28028;SDS011;15345;59.364;18.016;2023-05-17T06:02:18;7.53;;;6.78;;
28028;SDS011;15345;59.364;18.016;2023-05-17T06:03:37;6.68;;;6.03;;
28028;SDS011;15345;59.364;18.016;2023-05-17T06:04:56;7.30;;;6.80;;
28028;SDS011;15345;59.364;18.016;2023-05-17T06:06:15;6.97;;;6.57;;
28028;SDS011;15345;59.364;18.016;2023-05-17T06:07:36;7.18;;;6.63;;
28028;SDS011;15345;59.364;18.016;2023-05-17T06:08:55;10.80;;;7.53;;
28028;SDS011;15345;59.364;18.016;2023-05-17T06:10:14;7.35;;;5.97;;
28028;SDS011;15345;59.364;18.016;2023-05-17T06:11:33;7.28;;;6.50;;
28028;SDS011;15345;59.364;18.016;2023-05-17T06:12:52;6.45;;;5.85;;
28028;SDS011;15345;59.364;18.016;2023-05-17T06:14:11;5.88;;;5.47;;
28028;SDS011;15345;59.364;18.016;2023-05-17T06:15:30;6.25;;;5.40;;
28028;SDS011;15345;59.364;18.016;2023-05-17T06:16:49;4.78;;;4.47;;
28028;SDS011;15345;59.364;18.016;2023-05-17T06:18:08;3.95;;;3.75;;
28028;SDS011;15345;59.364;18.016;2023-05-17T06:19:27;4.10;;;3.70;;
28028;SDS011;15345;59.364;18.016;2023-05-17T06:20:46;4.20;;;3.85;;
28028;SDS011;15345;59.364;18.016;2023-05-17T06:22:05;4.47;;;4.18;;
28028;SDS011;15345;59.364;18.016;2023-05-17T06:23:24;4.05;;;2.90;;
28028;SDS011;15345;59.364;18.016;2023-05-17T06:24:43;5.43;;;3.58;;
28028;SDS011;15345;59.364;18.016;2023-05-17T06:26:02;4.10;;;3.80;;
28028;SDS011;15345;59.364;18.016;2023-05-17T06:27:21;3.72;;;3.50;;
28028;SDS011;15345;59.364;18.016;2023-05-17T06:28:40;4.78;;;3.95;;
28028;SDS011;15345;59.364;18.016;2023-05-17T06:29:59;3.70;;;3.50;;
28028;SDS011;15345;59.364;18.016;2023-05-17T06:31:18;3.65;;;3.45;;
28028;SDS011;15345;59.364;18.016;2023-05-17T06:32:37;4.18;;;3.88;;
28028;SDS011;15345;59.364;18.016;2023-05-17T06:33:56;6.90;;;5.45;;
28028;SDS011;15345;59.364;18.016;2023-05-17T06:35:15;4.88;;;4.47;;
28028;SDS011;15345;59.364;18.016;2023-05-17T06:36:35;3.75;;;3.55;;
28028;SDS011;15345;59.364;18.016;2023-05-17T06:37:57;3.22;;;3.08;;
28028;SDS011;15345;59.364;18.016;2023-05-17T06:39:16;3.28;;;3.03;;
28028;SDS011;15345;59.364;18.016;2023-05-17T06:40:35;3.17;;;2.88;;
28028;SDS011;15345;59.364;18.016;2023-05-17T06:41:54;3.13;;;2.92;;
28028;SDS011;15345;59.364;18.016;2023-05-17T06:43:13;3.50;;;3.20;;
28028;SDS011;15345;59.364;18.016;2023-05-17T06:44:32;3.40;;;2.85;;
28028;SDS011;15345;59.364;18.016;2023-05-17T06:45:51;3.47;;;2.92;;
28028;SDS011;15345;59.364;18.016;2023-05-17T06:47:10;7.18;;;5.53;;
28028;SDS011;15345;59.364;18.016;2023-05-17T06:48:29;4.22;;;3.30;;
28028;SDS011;15345;59.364;18.016;2023-05-17T06:49:48;2.97;;;2.78;;
28028;SDS011;15345;59.364;18.016;2023-05-17T06:51:07;2.60;;;2.50;;
28028;SDS011;15345;59.364;18.016;2023-05-17T06:52:26;3.28;;;2.53;;
28028;SDS011;15345;59.364;18.016;2023-05-17T06:53:45;3.05;;;2.80;;
28028;SDS011;15345;59.364;18.016;2023-05-17T06:55:04;2.63;;;2.42;;
28028;SDS011;15345;59.364;18.016;2023-05-17T06:56:23;2.25;;;2.15;;
28028;SDS011;15345;59.364;18.016;2023-05-17T06:57:42;2.92;;;2.40;;
28028;SDS011;15345;59.364;18.016;2023-05-17T06:59:01;2.15;;;2.05;;
28028;SDS011;15345;59.364;18.016;2023-05-17T07:00:20;2.88;;;2.05;;
28028;SDS011;15345;59.364;18.016;2023-05-17T07:01:39;2.53;;;2.42;;
28028;SDS011;15345;59.364;18.016;2023-05-17T07:02:58;2.40;;;2.30;;
28028;SDS011;15345;59.364;18.016;2023-05-17T07:04:17;2.22;;;2.10;;
28028;SDS011;15345;59.364;18.016;2023-05-17T07:05:36;3.25;;;2.17;;
28028;SDS011;15345;59.364;18.016;2023-05-17T07:06:56;2.38;;;2.17;;
28028;SDS011;15345;59.364;18.016;2023-05-17T07:08:14;2.38;;;2.28;;
28028;SDS011;15345;59.364;18.016;2023-05-17T07:09:33;2.25;;;2.15;;
28028;SDS011;15345;59.364;18.016;2023-05-17T07:10:52;2.53;;;2.42;;
28028;SDS011;15345;59.364;18.016;2023-05-17T07:12:11;2.28;;;2.17;;
28028;SDS011;15345;59.364;18.016;2023-05-17T07:13:29;2.47;;;2.28;;
28028;SDS011;15345;59.364;18.016;2023-05-17T07:14:48;2.35;;;2.25;;
28028;SDS011;15345;59.364;18.016;2023-05-17T07:16:07;2.83;;;2.08;;
28028;SDS011;15345;59.364;18.016;2023-05-17T07:17:27;2.10;;;2.00;;
28028;SDS011;15345;59.364;18.016;2023-05-17T07:18:46;2.22;;;2.13;;
28028;SDS011;15345;59.364;18.016;2023-05-17T07:20:06;2.30;;;2.20;;
28028;SDS011;15345;59.364;18.016;2023-05-17T07:21:25;2.20;;;2.10;;
28028;SDS011;15345;59.364;18.016;2023-05-17T07:22:44;2.50;;;2.40;;
28028;SDS011;15345;59.364;18.016;2023-05-17T07:24:03;2.33;;;2.22;;
28028;SDS011;15345;59.364;18.016;2023-05-17T07:25:22;2.50;;;2.30;;
28028;SDS011;15345;59.364;18.016;2023-05-17T07:26:41;2.08;;;1.98;;
28028;SDS011;15345;59.364;18.016;2023-05-17T07:28:00;2.22;;;2.13;;
28028;SDS011;15345;59.364;18.016;2023-05-17T07:29:19;2.60;;;2.38;;
28028;SDS011;15345;59.364;18.016;2023-05-17T07:30:38;2.90;;;2.70;;
28028;SDS011;15345;59.364;18.016;2023-05-17T07:31:57;2.55;;;2.40;;
28028;SDS011;15345;59.364;18.016;2023-05-17T07:33:16;3.00;;;2.80;;
28028;SDS011;15345;59.364;18.016;2023-05-17T07:34:35;2.42;;;2.22;;
28028;SDS011;15345;59.364;18.016;2023-05-17T07:35:53;2.95;;;2.75;;
28028;SDS011;15345;59.364;18.016;2023-05-17T07:37:12;2.90;;;2.70;;
28028;SDS011;15345;59.364;18.016;2023-05-17T07:38:31;3.28;;;3.08;;
28028;SDS011;15345;59.364;18.016;2023-05-17T07:39:53;3.45;;;2.40;;
28028;SDS011;15345;59.364;18.016;2023-05-17T07:41:12;1.60;;;1.50;;
28028;SDS011;15345;59.364;18.016;2023-05-17T07:42:34;1.70;;;1.60;;
28028;SDS011;15345;59.364;18.016;2023-05-17T07:43:53;2.75;;;1.67;;
28028;SDS011;15345;59.364;18.016;2023-05-17T07:45:12;1.50;;;1.38;;
28028;SDS011;15345;59.364;18.016;2023-05-17T07:46:31;1.88;;;1.30;;
28028;SDS011;15345;59.364;18.016;2023-05-17T07:47:50;1.25;;;0.82;;
28028;SDS011;15345;59.364;18.016;2023-05-17T07:49:09;2.00;;;1.30;;
28028;SDS011;15345;59.364;18.016;2023-05-17T07:50:27;1.27;;;1.15;;
28028;SDS011;15345;59.364;18.016;2023-05-17T07:51:46;1.17;;;0.73;;
28028;SDS011;15345;59.364;18.016;2023-05-17T07:53:05;1.00;;;0.90;;
28028;SDS011;15345;59.364;18.016;2023-05-17T07:54:24;0.82;;;0.82;;
28028;SDS011;15345;59.364;18.016;2023-05-17T07:55:45;1.75;;;0.70;;
28028;SDS011;15345;59.364;18.016;2023-05-17T07:57:04;0.95;;;0.95;;
28028;SDS011;15345;59.364;18.016;2023-05-17T07:58:22;1.05;;;1.00;;
28028;SDS011;15345;59.364;18.016;2023-05-17T07:59:41;1.30;;;0.93;;